sensor_id;sensor_type;location;lat;lon;timestamp;P1;durP1;ratioP1;P2;durP2;ratioP2
18875;SDS011;9570;50.854;13.778;2022-09-27T00:00:25;2.00;;;1.40;;
18875;SDS011;9570;50.854;13.778;2022-09-27T00:02:51;2.87;;;1.60;;
18875;SDS011;9570;50.854;13.778;2022-09-27T00:05:17;3.13;;;1.50;;
18875;SDS011;9570;50.854;13.778;2022-09-27T00:07:43;4.13;;;1.40;;
18875;SDS011;9570;50.854;13.778;2022-09-27T00:10:09;1.30;;;1.20;;
18875;SDS011;9570;50.854;13.778;2022-09-27T00:12:35;2.47;;;1.87;;
18875;SDS011;9570;50.854;13.778;2022-09-27T00:15:01;3.87;;;1.57;;
18875;SDS011;9570;50.854;13.778;2022-09-27T00:17:28;2.03;;;1.67;;
18875;SDS011;9570;50.854;13.778;2022-09-27T00:19:54;3.07;;;1.80;;
18875;SDS011;9570;50.854;13.778;2022-09-27T00:22:22;5.40;;;2.00;;
18875;SDS011;9570;50.854;13.778;2022-09-27T00:24:48;3.10;;;2.60;;
18875;SDS011;9570;50.854;13.778;2022-09-27T00:27:14;3.10;;;2.80;;
18875;SDS011;9570;50.854;13.778;2022-09-27T00:29:40;3.23;;;2.93;;
18875;SDS011;9570;50.854;13.778;2022-09-27T00:32:05;5.77;;;2.77;;
18875;SDS011;9570;50.854;13.778;2022-09-27T00:34:30;4.57;;;3.50;;
18875;SDS011;9570;50.854;13.778;2022-09-27T00:36:56;3.77;;;3.33;;
18875;SDS011;9570;50.854;13.778;2022-09-27T00:39:22;3.83;;;3.40;;
18875;SDS011;9570;50.854;13.778;2022-09-27T00:41:47;5.13;;;3.37;;
18875;SDS011;9570;50.854;13.778;2022-09-27T00:46:59;4.10;;;3.43;;
18875;SDS011;9570;50.854;13.778;2022-09-27T00:49:37;4.13;;;3.37;;
18875;SDS011;9570;50.854;13.778;2022-09-27T00:52:13;6.40;;;3.57;;
18875;SDS011;9570;50.854;13.778;2022-09-27T00:54:49;4.67;;;3.30;;
18875;SDS011;9570;50.854;13.778;2022-09-27T00:57:23;3.87;;;3.03;;
18875;SDS011;9570;50.854;13.778;2022-09-27T00:59:50;7.57;;;3.40;;
18875;SDS011;9570;50.854;13.778;2022-09-27T01:02:35;4.20;;;3.10;;
18875;SDS011;9570;50.854;13.778;2022-09-27T01:05:03;4.10;;;3.20;;
18875;SDS011;9570;50.854;13.778;2022-09-27T01:07:32;3.07;;;2.77;;
18875;SDS011;9570;50.854;13.778;2022-09-27T01:09:57;3.27;;;2.73;;
18875;SDS011;9570;50.854;13.778;2022-09-27T01:12:38;3.10;;;2.80;;
18875;SDS011;9570;50.854;13.778;2022-09-27T01:15:22;4.17;;;2.80;;
18875;SDS011;9570;50.854;13.778;2022-09-27T01:21:04;4.20;;;2.60;;
18875;SDS011;9570;50.854;13.778;2022-09-27T01:29:29;2.53;;;2.33;;
18875;SDS011;9570;50.854;13.778;2022-09-27T01:32:15;3.37;;;2.50;;
18875;SDS011;9570;50.854;13.778;2022-09-27T01:34:48;2.73;;;2.50;;
18875;SDS011;9570;50.854;13.778;2022-09-27T01:37:34;3.77;;;2.33;;
18875;SDS011;9570;50.854;13.778;2022-09-27T01:46:10;5.10;;;2.93;;
18875;SDS011;9570;50.854;13.778;2022-09-27T01:48:45;4.83;;;3.20;;
18875;SDS011;9570;50.854;13.778;2022-09-27T01:51:17;3.40;;;3.10;;
18875;SDS011;9570;50.854;13.778;2022-09-27T01:53:47;6.33;;;3.93;;
18875;SDS011;9570;50.854;13.778;2022-09-27T01:56:17;4.43;;;4.07;;
18875;SDS011;9570;50.854;13.778;2022-09-27T01:58:51;5.17;;;4.23;;
18875;SDS011;9570;50.854;13.778;2022-09-27T02:01:31;5.40;;;4.30;;
18875;SDS011;9570;50.854;13.778;2022-09-27T02:03:59;4.67;;;4.00;;
18875;SDS011;9570;50.854;13.778;2022-09-27T02:06:28;5.03;;;4.50;;
18875;SDS011;9570;50.854;13.778;2022-09-27T02:11:27;4.80;;;4.23;;
18875;SDS011;9570;50.854;13.778;2022-09-27T02:14:01;5.03;;;4.53;;
18875;SDS011;9570;50.854;13.778;2022-09-27T02:19:16;8.00;;;5.47;;
18875;SDS011;9570;50.854;13.778;2022-09-27T02:22:09;5.47;;;4.90;;
18875;SDS011;9570;50.854;13.778;2022-09-27T02:24:37;6.80;;;4.77;;
18875;SDS011;9570;50.854;13.778;2022-09-27T02:27:21;5.67;;;4.63;;
18875;SDS011;9570;50.854;13.778;2022-09-27T02:30:05;5.07;;;4.57;;
18875;SDS011;9570;50.854;13.778;2022-09-27T02:32:33;6.23;;;4.93;;
18875;SDS011;9570;50.854;13.778;2022-09-27T02:35:01;5.67;;;4.73;;
18875;SDS011;9570;50.854;13.778;2022-09-27T02:37:31;7.80;;;4.97;;
18875;SDS011;9570;50.854;13.778;2022-09-27T02:39:57;6.50;;;4.93;;
18875;SDS011;9570;50.854;13.778;2022-09-27T02:42:23;5.90;;;4.23;;
18875;SDS011;9570;50.854;13.778;2022-09-27T02:44:49;5.63;;;4.37;;
18875;SDS011;9570;50.854;13.778;2022-09-27T02:47:29;4.97;;;4.27;;
18875;SDS011;9570;50.854;13.778;2022-09-27T02:50:21;5.30;;;4.50;;
18875;SDS011;9570;50.854;13.778;2022-09-27T02:53:47;4.30;;;3.90;;
18875;SDS011;9570;50.854;13.778;2022-09-27T02:56:14;4.77;;;3.97;;
18875;SDS011;9570;50.854;13.778;2022-09-27T02:58:57;4.43;;;3.80;;
18875;SDS011;9570;50.854;13.778;2022-09-27T03:01:50;4.43;;;3.90;;
18875;SDS011;9570;50.854;13.778;2022-09-27T03:04:39;4.77;;;4.37;;
18875;SDS011;9570;50.854;13.778;2022-09-27T03:07:11;8.53;;;4.30;;
18875;SDS011;9570;50.854;13.778;2022-09-27T03:12:08;6.47;;;4.23;;
18875;SDS011;9570;50.854;13.778;2022-09-27T03:14:35;6.47;;;3.83;;
18875;SDS011;9570;50.854;13.778;2022-09-27T03:17:00;6.97;;;4.27;;
18875;SDS011;9570;50.854;13.778;2022-09-27T03:19:25;7.70;;;4.43;;
18875;SDS011;9570;50.854;13.778;2022-09-27T03:21:52;5.53;;;4.37;;
18875;SDS011;9570;50.854;13.778;2022-09-27T03:24:17;5.20;;;3.93;;
18875;SDS011;9570;50.854;13.778;2022-09-27T03:26:43;5.63;;;4.77;;
18875;SDS011;9570;50.854;13.778;2022-09-27T03:29:08;5.40;;;4.00;;
18875;SDS011;9570;50.854;13.778;2022-09-27T03:31:33;5.33;;;4.57;;
18875;SDS011;9570;50.854;13.778;2022-09-27T03:33:59;4.63;;;4.23;;
18875;SDS011;9570;50.854;13.778;2022-09-27T03:36:24;6.93;;;4.70;;
18875;SDS011;9570;50.854;13.778;2022-09-27T03:38:50;7.17;;;4.60;;
18875;SDS011;9570;50.854;13.778;2022-09-27T03:41:15;5.87;;;4.70;;
18875;SDS011;9570;50.854;13.778;2022-09-27T03:43:41;6.43;;;4.33;;
18875;SDS011;9570;50.854;13.778;2022-09-27T03:46:06;5.00;;;4.50;;
18875;SDS011;9570;50.854;13.778;2022-09-27T03:48:32;5.23;;;4.73;;
18875;SDS011;9570;50.854;13.778;2022-09-27T03:50:57;4.93;;;4.47;;
18875;SDS011;9570;50.854;13.778;2022-09-27T03:53:23;6.80;;;4.70;;
18875;SDS011;9570;50.854;13.778;2022-09-27T03:55:48;4.87;;;4.37;;
18875;SDS011;9570;50.854;13.778;2022-09-27T03:58:14;4.87;;;4.37;;
18875;SDS011;9570;50.854;13.778;2022-09-27T04:00:40;4.70;;;4.20;;
18875;SDS011;9570;50.854;13.778;2022-09-27T04:03:06;5.30;;;4.80;;
18875;SDS011;9570;50.854;13.778;2022-09-27T04:05:32;5.60;;;5.00;;
18875;SDS011;9570;50.854;13.778;2022-09-27T04:07:57;5.20;;;4.70;;
18875;SDS011;9570;50.854;13.778;2022-09-27T04:10:23;5.27;;;4.77;;
18875;SDS011;9570;50.854;13.778;2022-09-27T04:12:49;6.67;;;4.83;;
18875;SDS011;9570;50.854;13.778;2022-09-27T04:15:15;5.33;;;4.47;;
18875;SDS011;9570;50.854;13.778;2022-09-27T04:17:41;4.80;;;4.40;;
18875;SDS011;9570;50.854;13.778;2022-09-27T04:20:08;4.83;;;4.40;;
18875;SDS011;9570;50.854;13.778;2022-09-27T04:22:37;6.27;;;4.50;;
18875;SDS011;9570;50.854;13.778;2022-09-27T04:25:05;4.80;;;4.30;;
18875;SDS011;9570;50.854;13.778;2022-09-27T04:27:31;5.07;;;4.33;;
18875;SDS011;9570;50.854;13.778;2022-09-27T04:29:57;4.87;;;3.93;;
18875;SDS011;9570;50.854;13.778;2022-09-27T04:32:23;4.73;;;4.27;;
18875;SDS011;9570;50.854;13.778;2022-09-27T04:34:48;5.27;;;3.57;;
18875;SDS011;9570;50.854;13.778;2022-09-27T04:37:45;5.17;;;3.53;;
18875;SDS011;9570;50.854;13.778;2022-09-27T04:40:11;4.03;;;3.57;;
18875;SDS011;9570;50.854;13.778;2022-09-27T04:42:36;5.00;;;4.27;;
18875;SDS011;9570;50.854;13.778;2022-09-27T04:45:02;4.60;;;4.07;;
18875;SDS011;9570;50.854;13.778;2022-09-27T04:47:27;5.27;;;3.87;;
18875;SDS011;9570;50.854;13.778;2022-09-27T04:49:53;4.23;;;3.83;;
18875;SDS011;9570;50.854;13.778;2022-09-27T04:52:18;4.50;;;4.10;;
18875;SDS011;9570;50.854;13.778;2022-09-27T04:54:44;5.23;;;4.20;;
18875;SDS011;9570;50.854;13.778;2022-09-27T04:57:09;5.80;;;4.40;;
18875;SDS011;9570;50.854;13.778;2022-09-27T04:59:36;5.13;;;4.63;;
18875;SDS011;9570;50.854;13.778;2022-09-27T05:02:01;5.77;;;4.83;;
18875;SDS011;9570;50.854;13.778;2022-09-27T05:04:27;5.63;;;4.90;;
18875;SDS011;9570;50.854;13.778;2022-09-27T05:06:52;6.23;;;4.77;;
18875;SDS011;9570;50.854;13.778;2022-09-27T05:09:18;5.40;;;4.90;;
18875;SDS011;9570;50.854;13.778;2022-09-27T05:11:43;5.80;;;5.27;;
18875;SDS011;9570;50.854;13.778;2022-09-27T05:14:09;6.13;;;5.53;;
18875;SDS011;9570;50.854;13.778;2022-09-27T05:16:34;5.53;;;5.03;;
18875;SDS011;9570;50.854;13.778;2022-09-27T05:19:00;6.00;;;5.20;;
18875;SDS011;9570;50.854;13.778;2022-09-27T05:21:27;7.30;;;5.67;;
18875;SDS011;9570;50.854;13.778;2022-09-27T05:23:53;6.50;;;5.50;;
18875;SDS011;9570;50.854;13.778;2022-09-27T05:26:18;6.53;;;5.13;;
18875;SDS011;9570;50.854;13.778;2022-09-27T05:28:44;6.63;;;5.50;;
18875;SDS011;9570;50.854;13.778;2022-09-27T05:31:11;5.53;;;4.83;;
18875;SDS011;9570;50.854;13.778;2022-09-27T05:33:37;6.57;;;5.00;;
18875;SDS011;9570;50.854;13.778;2022-09-27T05:36:02;5.47;;;4.37;;
18875;SDS011;9570;50.854;13.778;2022-09-27T05:38:28;4.87;;;4.40;;
18875;SDS011;9570;50.854;13.778;2022-09-27T05:40:54;4.87;;;4.23;;
18875;SDS011;9570;50.854;13.778;2022-09-27T05:43:19;5.43;;;4.30;;
18875;SDS011;9570;50.854;13.778;2022-09-27T05:45:45;3.70;;;3.40;;
18875;SDS011;9570;50.854;13.778;2022-09-27T05:48:11;4.40;;;4.00;;
18875;SDS011;9570;50.854;13.778;2022-09-27T05:50:38;4.73;;;4.17;;
18875;SDS011;9570;50.854;13.778;2022-09-27T05:53:04;6.07;;;4.50;;
18875;SDS011;9570;50.854;13.778;2022-09-27T05:55:30;4.97;;;4.47;;
18875;SDS011;9570;50.854;13.778;2022-09-27T05:57:59;4.53;;;4.13;;
18875;SDS011;9570;50.854;13.778;2022-09-27T06:00:26;4.73;;;4.33;;
18875;SDS011;9570;50.854;13.778;2022-09-27T06:02:53;5.60;;;5.10;;
18875;SDS011;9570;50.854;13.778;2022-09-27T06:05:20;5.60;;;5.13;;
18875;SDS011;9570;50.854;13.778;2022-09-27T06:07:46;6.07;;;5.50;;
18875;SDS011;9570;50.854;13.778;2022-09-27T06:10:13;5.90;;;5.40;;
18875;SDS011;9570;50.854;13.778;2022-09-27T06:12:40;6.03;;;5.53;;
18875;SDS011;9570;50.854;13.778;2022-09-27T06:15:06;6.20;;;5.43;;
18875;SDS011;9570;50.854;13.778;2022-09-27T06:17:34;7.90;;;7.10;;
18875;SDS011;9570;50.854;13.778;2022-09-27T06:20:01;6.77;;;6.17;;
18875;SDS011;9570;50.854;13.778;2022-09-27T06:22:27;6.37;;;5.77;;
18875;SDS011;9570;50.854;13.778;2022-09-27T06:24:52;6.27;;;5.77;;
18875;SDS011;9570;50.854;13.778;2022-09-27T06:27:17;6.37;;;5.60;;
18875;SDS011;9570;50.854;13.778;2022-09-27T06:29:43;5.83;;;5.33;;
18875;SDS011;9570;50.854;13.778;2022-09-27T06:32:09;5.60;;;5.10;;
18875;SDS011;9570;50.854;13.778;2022-09-27T06:34:35;5.47;;;4.97;;
18875;SDS011;9570;50.854;13.778;2022-09-27T06:37:00;5.40;;;4.90;;
18875;SDS011;9570;50.854;13.778;2022-09-27T06:39:26;5.73;;;5.23;;
18875;SDS011;9570;50.854;13.778;2022-09-27T06:41:53;6.10;;;5.60;;
18875;SDS011;9570;50.854;13.778;2022-09-27T06:44:23;5.70;;;5.03;;
18875;SDS011;9570;50.854;13.778;2022-09-27T06:46:49;5.23;;;4.73;;
18875;SDS011;9570;50.854;13.778;2022-09-27T06:49:15;4.67;;;4.27;;
18875;SDS011;9570;50.854;13.778;2022-09-27T06:51:40;4.07;;;3.77;;
18875;SDS011;9570;50.854;13.778;2022-09-27T06:54:06;3.53;;;3.23;;
18875;SDS011;9570;50.854;13.778;2022-09-27T06:56:32;2.80;;;2.60;;
18875;SDS011;9570;50.854;13.778;2022-09-27T06:58:58;3.60;;;3.30;;
18875;SDS011;9570;50.854;13.778;2022-09-27T07:01:42;2.50;;;2.30;;
18875;SDS011;9570;50.854;13.778;2022-09-27T07:04:09;2.93;;;2.70;;
18875;SDS011;9570;50.854;13.778;2022-09-27T07:06:35;3.37;;;3.07;;
18875;SDS011;9570;50.854;13.778;2022-09-27T07:09:01;2.67;;;2.47;;
18875;SDS011;9570;50.854;13.778;2022-09-27T07:11:27;2.40;;;2.20;;
18875;SDS011;9570;50.854;13.778;2022-09-27T07:13:52;2.17;;;1.90;;
18875;SDS011;9570;50.854;13.778;2022-09-27T07:16:18;2.90;;;2.20;;
18875;SDS011;9570;50.854;13.778;2022-09-27T07:18:44;2.10;;;2.00;;
18875;SDS011;9570;50.854;13.778;2022-09-27T07:21:12;2.40;;;1.90;;
18875;SDS011;9570;50.854;13.778;2022-09-27T07:23:40;3.50;;;1.90;;
18875;SDS011;9570;50.854;13.778;2022-09-27T07:26:05;1.80;;;1.70;;
18875;SDS011;9570;50.854;13.778;2022-09-27T07:28:34;1.80;;;1.70;;
18875;SDS011;9570;50.854;13.778;2022-09-27T07:31:00;1.73;;;1.63;;
18875;SDS011;9570;50.854;13.778;2022-09-27T07:33:26;2.13;;;1.50;;
18875;SDS011;9570;50.854;13.778;2022-09-27T07:35:52;1.77;;;1.50;;
18875;SDS011;9570;50.854;13.778;2022-09-27T07:38:18;1.60;;;1.50;;
18875;SDS011;9570;50.854;13.778;2022-09-27T07:40:44;1.63;;;1.53;;
18875;SDS011;9570;50.854;13.778;2022-09-27T07:43:09;1.30;;;1.20;;
18875;SDS011;9570;50.854;13.778;2022-09-27T07:45:36;1.57;;;1.47;;
18875;SDS011;9570;50.854;13.778;2022-09-27T07:48:09;2.27;;;1.10;;
18875;SDS011;9570;50.854;13.778;2022-09-27T07:50:37;2.07;;;1.40;;
18875;SDS011;9570;50.854;13.778;2022-09-27T07:53:03;1.30;;;1.20;;
18875;SDS011;9570;50.854;13.778;2022-09-27T07:55:29;4.17;;;1.33;;
18875;SDS011;9570;50.854;13.778;2022-09-27T07:58:05;1.40;;;1.30;;
18875;SDS011;9570;50.854;13.778;2022-09-27T08:00:33;1.43;;;1.30;;
18875;SDS011;9570;50.854;13.778;2022-09-27T08:03:03;3.57;;;1.30;;
18875;SDS011;9570;50.854;13.778;2022-09-27T08:05:30;1.30;;;1.20;;
18875;SDS011;9570;50.854;13.778;2022-09-27T08:07:57;1.50;;;1.20;;
18875;SDS011;9570;50.854;13.778;2022-09-27T08:10:22;1.20;;;1.10;;
18875;SDS011;9570;50.854;13.778;2022-09-27T08:12:51;1.00;;;1.00;;
18875;SDS011;9570;50.854;13.778;2022-09-27T08:15:16;1.07;;;0.97;;
18875;SDS011;9570;50.854;13.778;2022-09-27T08:17:42;1.20;;;1.07;;
18875;SDS011;9570;50.854;13.778;2022-09-27T08:20:07;1.17;;;1.07;;
18875;SDS011;9570;50.854;13.778;2022-09-27T08:22:38;1.10;;;0.80;;
18875;SDS011;9570;50.854;13.778;2022-09-27T08:25:05;2.37;;;1.00;;
18875;SDS011;9570;50.854;13.778;2022-09-27T08:27:30;2.53;;;1.00;;
18875;SDS011;9570;50.854;13.778;2022-09-27T08:29:56;0.90;;;0.90;;
18875;SDS011;9570;50.854;13.778;2022-09-27T08:32:22;1.40;;;1.00;;
18875;SDS011;9570;50.854;13.778;2022-09-27T08:34:47;1.37;;;1.07;;
18875;SDS011;9570;50.854;13.778;2022-09-27T08:37:13;2.10;;;1.10;;
18875;SDS011;9570;50.854;13.778;2022-09-27T08:39:38;0.90;;;0.90;;
18875;SDS011;9570;50.854;13.778;2022-09-27T08:42:12;0.97;;;0.83;;
18875;SDS011;9570;50.854;13.778;2022-09-27T08:47:41;0.70;;;0.70;;
18875;SDS011;9570;50.854;13.778;2022-09-27T08:52:57;1.00;;;0.90;;
18875;SDS011;9570;50.854;13.778;2022-09-27T08:55:44;0.93;;;0.83;;
18875;SDS011;9570;50.854;13.778;2022-09-27T08:58:18;5.97;;;0.90;;
18875;SDS011;9570;50.854;13.778;2022-09-27T09:00:54;1.00;;;0.90;;
18875;SDS011;9570;50.854;13.778;2022-09-27T09:03:23;1.00;;;0.90;;
18875;SDS011;9570;50.854;13.778;2022-09-27T09:06:03;0.90;;;0.80;;
18875;SDS011;9570;50.854;13.778;2022-09-27T09:08:38;1.17;;;0.80;;
18875;SDS011;9570;50.854;13.778;2022-09-27T09:11:25;0.93;;;0.90;;
18875;SDS011;9570;50.854;13.778;2022-09-27T09:14:20;0.80;;;0.80;;
18875;SDS011;9570;50.854;13.778;2022-09-27T09:17:01;0.87;;;0.83;;
18875;SDS011;9570;50.854;13.778;2022-09-27T09:19:59;0.80;;;0.70;;
18875;SDS011;9570;50.854;13.778;2022-09-27T09:28:28;0.80;;;0.80;;
18875;SDS011;9570;50.854;13.778;2022-09-27T09:31:25;0.90;;;0.90;;
18875;SDS011;9570;50.854;13.778;2022-09-27T09:34:09;1.63;;;1.00;;
18875;SDS011;9570;50.854;13.778;2022-09-27T09:36:43;1.37;;;0.97;;
18875;SDS011;9570;50.854;13.778;2022-09-27T09:39:47;0.90;;;0.90;;
18875;SDS011;9570;50.854;13.778;2022-09-27T09:42:24;0.87;;;0.70;;
18875;SDS011;9570;50.854;13.778;2022-09-27T09:47:43;0.67;;;0.67;;
18875;SDS011;9570;50.854;13.778;2022-09-27T09:50:22;0.47;;;0.47;;
18875;SDS011;9570;50.854;13.778;2022-09-27T09:52:55;0.60;;;0.60;;
18875;SDS011;9570;50.854;13.778;2022-09-27T09:55:28;0.70;;;0.70;;
18875;SDS011;9570;50.854;13.778;2022-09-27T09:58:16;0.70;;;0.60;;
18875;SDS011;9570;50.854;13.778;2022-09-27T10:00:47;0.87;;;0.47;;
18875;SDS011;9570;50.854;13.778;2022-09-27T10:03:19;0.83;;;0.60;;
18875;SDS011;9570;50.854;13.778;2022-09-27T10:05:45;1.57;;;0.70;;
18875;SDS011;9570;50.854;13.778;2022-09-27T10:08:12;0.67;;;0.50;;
18875;SDS011;9570;50.854;13.778;2022-09-27T10:10:44;1.23;;;0.60;;
18875;SDS011;9570;50.854;13.778;2022-09-27T10:13:17;0.73;;;0.60;;
18875;SDS011;9570;50.854;13.778;2022-09-27T10:16:04;0.50;;;0.50;;
18875;SDS011;9570;50.854;13.778;2022-09-27T10:18:32;0.60;;;0.50;;
18875;SDS011;9570;50.854;13.778;2022-09-27T10:21:01;0.40;;;0.33;;
18875;SDS011;9570;50.854;13.778;2022-09-27T10:23:30;0.63;;;0.50;;
18875;SDS011;9570;50.854;13.778;2022-09-27T10:25:57;0.40;;;0.40;;
18875;SDS011;9570;50.854;13.778;2022-09-27T10:28:38;0.70;;;0.70;;
18875;SDS011;9570;50.854;13.778;2022-09-27T10:31:15;0.40;;;0.40;;
18875;SDS011;9570;50.854;13.778;2022-09-27T10:33:55;0.40;;;0.40;;
18875;SDS011;9570;50.854;13.778;2022-09-27T10:38:51;0.67;;;0.40;;
18875;SDS011;9570;50.854;13.778;2022-09-27T10:44:17;0.60;;;0.60;;
18875;SDS011;9570;50.854;13.778;2022-09-27T10:46:46;0.53;;;0.37;;
18875;SDS011;9570;50.854;13.778;2022-09-27T10:49:20;1.90;;;0.40;;
18875;SDS011;9570;50.854;13.778;2022-09-27T10:51:58;1.37;;;0.70;;
18875;SDS011;9570;50.854;13.778;2022-09-27T10:57:25;2.20;;;0.50;;
18875;SDS011;9570;50.854;13.778;2022-09-27T10:59:54;0.40;;;0.40;;
18875;SDS011;9570;50.854;13.778;2022-09-27T11:02:31;0.27;;;0.20;;
18875;SDS011;9570;50.854;13.778;2022-09-27T11:07:37;0.17;;;0.17;;
18875;SDS011;9570;50.854;13.778;2022-09-27T11:24:20;0.53;;;0.20;;
18875;SDS011;9570;50.854;13.778;2022-09-27T11:27:17;0.77;;;0.70;;
18875;SDS011;9570;50.854;13.778;2022-09-27T11:30:03;0.50;;;0.50;;
18875;SDS011;9570;50.854;13.778;2022-09-27T11:32:36;0.37;;;0.37;;
18875;SDS011;9570;50.854;13.778;2022-09-27T11:43:30;0.33;;;0.33;;
18875;SDS011;9570;50.854;13.778;2022-09-27T11:46:33;0.30;;;0.30;;
18875;SDS011;9570;50.854;13.778;2022-09-27T11:49:04;0.40;;;0.40;;
18875;SDS011;9570;50.854;13.778;2022-09-27T11:54:36;0.40;;;0.40;;
18875;SDS011;9570;50.854;13.778;2022-09-27T11:57:23;0.43;;;0.40;;
18875;SDS011;9570;50.854;13.778;2022-09-27T12:00:03;0.47;;;0.40;;
18875;SDS011;9570;50.854;13.778;2022-09-27T12:11:19;1.50;;;0.47;;
18875;SDS011;9570;50.854;13.778;2022-09-27T12:13:56;0.93;;;0.50;;
18875;SDS011;9570;50.854;13.778;2022-09-27T12:16:51;0.80;;;0.50;;
18875;SDS011;9570;50.854;13.778;2022-09-27T12:19:29;0.77;;;0.50;;
18875;SDS011;9570;50.854;13.778;2022-09-27T12:22:00;0.43;;;0.43;;
18875;SDS011;9570;50.854;13.778;2022-09-27T12:24:28;0.50;;;0.50;;
18875;SDS011;9570;50.854;13.778;2022-09-27T12:26:56;0.60;;;0.43;;
18875;SDS011;9570;50.854;13.778;2022-09-27T12:29:26;2.47;;;0.50;;
18875;SDS011;9570;50.854;13.778;2022-09-27T12:32:05;0.47;;;0.47;;
18875;SDS011;9570;50.854;13.778;2022-09-27T12:37:27;0.57;;;0.40;;
18875;SDS011;9570;50.854;13.778;2022-09-27T12:40:00;0.37;;;0.37;;
18875;SDS011;9570;50.854;13.778;2022-09-27T12:43:05;0.40;;;0.40;;
18875;SDS011;9570;50.854;13.778;2022-09-27T12:45:46;0.30;;;0.30;;
18875;SDS011;9570;50.854;13.778;2022-09-27T12:51:33;0.40;;;0.40;;
18875;SDS011;9570;50.854;13.778;2022-09-27T12:57:30;0.30;;;0.30;;
18875;SDS011;9570;50.854;13.778;2022-09-27T13:00:16;0.87;;;0.40;;
18875;SDS011;9570;50.854;13.778;2022-09-27T13:13:43;0.40;;;0.40;;
18875;SDS011;9570;50.854;13.778;2022-09-27T13:16:08;0.50;;;0.50;;
18875;SDS011;9570;50.854;13.778;2022-09-27T13:21:01;0.80;;;0.80;;
18875;SDS011;9570;50.854;13.778;2022-09-27T13:30:53;0.50;;;0.50;;
18875;SDS011;9570;50.854;13.778;2022-09-27T13:33:20;1.13;;;0.60;;
18875;SDS011;9570;50.854;13.778;2022-09-27T13:41:31;0.53;;;0.50;;
18875;SDS011;9570;50.854;13.778;2022-09-27T13:47:44;0.70;;;0.60;;
18875;SDS011;9570;50.854;13.778;2022-09-27T13:49:50;0.60;;;0.60;;
18875;SDS011;9570;50.854;13.778;2022-09-27T13:52:34;0.60;;;0.60;;
18875;SDS011;9570;50.854;13.778;2022-09-27T13:55:02;0.67;;;0.60;;
18875;SDS011;9570;50.854;13.778;2022-09-27T14:00:23;0.60;;;0.60;;
18875;SDS011;9570;50.854;13.778;2022-09-27T14:05:26;0.60;;;0.60;;
18875;SDS011;9570;50.854;13.778;2022-09-27T14:07:56;0.50;;;0.50;;
18875;SDS011;9570;50.854;13.778;2022-09-27T14:10:24;0.70;;;0.60;;
18875;SDS011;9570;50.854;13.778;2022-09-27T14:12:52;1.27;;;0.70;;
18875;SDS011;9570;50.854;13.778;2022-09-27T14:15:23;0.73;;;0.67;;
18875;SDS011;9570;50.854;13.778;2022-09-27T14:17:51;0.73;;;0.70;;
18875;SDS011;9570;50.854;13.778;2022-09-27T14:22:59;0.70;;;0.60;;
18875;SDS011;9570;50.854;13.778;2022-09-27T14:25:26;0.63;;;0.60;;
18875;SDS011;9570;50.854;13.778;2022-09-27T14:27:52;0.80;;;0.60;;
18875;SDS011;9570;50.854;13.778;2022-09-27T14:30:18;0.40;;;0.40;;
18875;SDS011;9570;50.854;13.778;2022-09-27T14:32:46;0.40;;;0.40;;
18875;SDS011;9570;50.854;13.778;2022-09-27T14:35:17;0.67;;;0.67;;
18875;SDS011;9570;50.854;13.778;2022-09-27T14:38:03;2.03;;;0.60;;
18875;SDS011;9570;50.854;13.778;2022-09-27T14:40:33;0.67;;;0.67;;
18875;SDS011;9570;50.854;13.778;2022-09-27T14:43:04;0.67;;;0.63;;
18875;SDS011;9570;50.854;13.778;2022-09-27T14:45:32;0.80;;;0.50;;
18875;SDS011;9570;50.854;13.778;2022-09-27T14:48:01;0.63;;;0.60;;
18875;SDS011;9570;50.854;13.778;2022-09-27T14:50:41;0.67;;;0.67;;
18875;SDS011;9570;50.854;13.778;2022-09-27T14:53:22;0.60;;;0.60;;
18875;SDS011;9570;50.854;13.778;2022-09-27T14:55:48;0.70;;;0.70;;
18875;SDS011;9570;50.854;13.778;2022-09-27T14:58:17;1.77;;;0.70;;
18875;SDS011;9570;50.854;13.778;2022-09-27T15:00:44;0.80;;;0.80;;
18875;SDS011;9570;50.854;13.778;2022-09-27T15:03:11;2.40;;;1.00;;
18875;SDS011;9570;50.854;13.778;2022-09-27T15:05:44;1.20;;;0.80;;
18875;SDS011;9570;50.854;13.778;2022-09-27T15:08:10;1.00;;;0.90;;
18875;SDS011;9570;50.854;13.778;2022-09-27T15:10:39;1.93;;;0.90;;
18875;SDS011;9570;50.854;13.778;2022-09-27T15:13:04;0.73;;;0.70;;
18875;SDS011;9570;50.854;13.778;2022-09-27T15:15:31;0.70;;;0.70;;
18875;SDS011;9570;50.854;13.778;2022-09-27T15:17:59;0.60;;;0.60;;
18875;SDS011;9570;50.854;13.778;2022-09-27T15:20:27;1.17;;;0.83;;
18875;SDS011;9570;50.854;13.778;2022-09-27T15:22:54;0.60;;;0.60;;
18875;SDS011;9570;50.854;13.778;2022-09-27T15:25:28;0.50;;;0.50;;
18875;SDS011;9570;50.854;13.778;2022-09-27T15:28:02;0.70;;;0.70;;
18875;SDS011;9570;50.854;13.778;2022-09-27T15:30:41;0.70;;;0.70;;
18875;SDS011;9570;50.854;13.778;2022-09-27T15:33:24;0.70;;;0.70;;
18875;SDS011;9570;50.854;13.778;2022-09-27T15:35:56;0.73;;;0.70;;
18875;SDS011;9570;50.854;13.778;2022-09-27T15:38:27;0.83;;;0.83;;
18875;SDS011;9570;50.854;13.778;2022-09-27T15:43:37;1.50;;;0.80;;
18875;SDS011;9570;50.854;13.778;2022-09-27T15:51:41;0.60;;;0.60;;
18875;SDS011;9570;50.854;13.778;2022-09-27T15:54:08;1.13;;;0.90;;
18875;SDS011;9570;50.854;13.778;2022-09-27T15:56:33;1.13;;;1.00;;
18875;SDS011;9570;50.854;13.778;2022-09-27T15:59:00;0.80;;;0.80;;
18875;SDS011;9570;50.854;13.778;2022-09-27T16:01:26;1.30;;;1.00;;
18875;SDS011;9570;50.854;13.778;2022-09-27T16:03:51;1.10;;;1.00;;
18875;SDS011;9570;50.854;13.778;2022-09-27T16:06:17;0.90;;;0.90;;
18875;SDS011;9570;50.854;13.778;2022-09-27T16:08:43;4.43;;;1.10;;
18875;SDS011;9570;50.854;13.778;2022-09-27T16:11:11;2.83;;;0.90;;
18875;SDS011;9570;50.854;13.778;2022-09-27T16:13:38;1.53;;;1.07;;
18875;SDS011;9570;50.854;13.778;2022-09-27T16:16:04;0.80;;;0.80;;
18875;SDS011;9570;50.854;13.778;2022-09-27T16:18:29;1.47;;;1.00;;
18875;SDS011;9570;50.854;13.778;2022-09-27T16:20:57;1.07;;;0.80;;
18875;SDS011;9570;50.854;13.778;2022-09-27T16:23:23;1.27;;;0.90;;
18875;SDS011;9570;50.854;13.778;2022-09-27T16:25:50;2.10;;;1.00;;
18875;SDS011;9570;50.854;13.778;2022-09-27T16:28:16;3.97;;;1.00;;
18875;SDS011;9570;50.854;13.778;2022-09-27T16:30:42;1.23;;;1.00;;
18875;SDS011;9570;50.854;13.778;2022-09-27T16:33:09;1.37;;;1.27;;
18875;SDS011;9570;50.854;13.778;2022-09-27T16:35:34;0.80;;;0.80;;
18875;SDS011;9570;50.854;13.778;2022-09-27T16:38:04;2.40;;;1.00;;
18875;SDS011;9570;50.854;13.778;2022-09-27T16:40:30;2.70;;;1.30;;
18875;SDS011;9570;50.854;13.778;2022-09-27T16:42:55;1.30;;;1.20;;
18875;SDS011;9570;50.854;13.778;2022-09-27T16:45:21;1.50;;;1.10;;
18875;SDS011;9570;50.854;13.778;2022-09-27T16:47:46;1.33;;;0.80;;
18875;SDS011;9570;50.854;13.778;2022-09-27T16:50:12;1.80;;;0.60;;
18875;SDS011;9570;50.854;13.778;2022-09-27T16:52:57;0.63;;;0.63;;
18875;SDS011;9570;50.854;13.778;2022-09-27T16:55:24;0.60;;;0.60;;
18875;SDS011;9570;50.854;13.778;2022-09-27T16:57:50;1.00;;;0.80;;
18875;SDS011;9570;50.854;13.778;2022-09-27T17:00:16;0.60;;;0.60;;
18875;SDS011;9570;50.854;13.778;2022-09-27T17:02:42;0.70;;;0.60;;
18875;SDS011;9570;50.854;13.778;2022-09-27T17:05:11;1.43;;;0.70;;
18875;SDS011;9570;50.854;13.778;2022-09-27T17:07:37;0.60;;;0.60;;
18875;SDS011;9570;50.854;13.778;2022-09-27T17:10:02;1.00;;;0.80;;
18875;SDS011;9570;50.854;13.778;2022-09-27T17:12:29;0.60;;;0.60;;
18875;SDS011;9570;50.854;13.778;2022-09-27T17:14:56;1.00;;;0.83;;
18875;SDS011;9570;50.854;13.778;2022-09-27T17:17:21;3.47;;;0.73;;
18875;SDS011;9570;50.854;13.778;2022-09-27T17:19:47;2.43;;;0.80;;
18875;SDS011;9570;50.854;13.778;2022-09-27T17:22:12;1.43;;;0.80;;
18875;SDS011;9570;50.854;13.778;2022-09-27T17:24:38;3.17;;;0.67;;
18875;SDS011;9570;50.854;13.778;2022-09-27T17:27:03;1.53;;;0.57;;